Time;durP1;ratioP1;P1;durP2;ratioP2;P2;SDS_P1;SDS_P2;PMS_P1;PMS_P2;Temp;Humidity;BMP_temperature;BMP_pressure;BME280_temperature;BME280_humidity;BME280_pressure;Samples;Min_cycle;Max_cycle;Signal;HPM_P1;HPM_P2
2023/08/09 00:00:06;;;;;;;1.80;1.70;;;;;;;;;;5109507;27;40623;-67
2023/08/09 00:02:34;;;;;;;1.67;1.55;;;;;;;;;;5108612;27;40715;-65
2023/08/09 00:05:04;;;;;;;2.10;1.90;;;;;;;;;;5109512;28;40023;-65
2023/08/09 00:07:32;;;;;;;2.28;2.08;;;;;;;;;;5109008;28;42506;-65
2023/08/09 00:10:00;;;;;;;1.90;1.80;;;;;;;;;;5109211;27;41828;-65
2023/08/09 00:12:28;;;;;;;2.03;1.50;;;;;;;;;;5108989;27;41302;-65
2023/08/09 00:14:56;;;;;;;1.92;1.83;;;;;;;;;;5108975;27;42133;-65
2023/08/09 00:17:24;;;;;;;2.53;1.88;;;;;;;;;;5109006;27;43128;-65
2023/08/09 00:19:52;;;;;;;1.73;1.63;;;;;;;;;;5108890;27;40477;-65
2023/08/09 00:22:21;;;;;;;2.13;1.90;;;;;;;;;;5108693;27;40985;-65
2023/08/09 00:24:49;;;;;;;1.75;1.58;;;;;;;;;;5108862;27;40036;-65
2023/08/09 00:27:17;;;;;;;2.15;1.90;;;;;;;;;;5108928;27;41495;-65
2023/08/09 00:29:45;;;;;;;1.85;1.70;;;;;;;;;;5107636;27;42141;-65
2023/08/09 00:32:13;;;;;;;1.80;1.70;;;;;;;;;;5108760;28;40411;-65
2023/08/09 00:34:42;;;;;;;3.75;1.70;;;;;;;;;;5108932;27;42616;-65
2023/08/09 00:37:10;;;;;;;1.65;1.55;;;;;;;;;;5107524;27;43096;-66
2023/08/09 00:39:39;;;;;;;1.42;1.25;;;;;;;;;;5107911;27;42038;-65
2023/08/09 00:42:07;;;;;;;1.55;1.45;;;;;;;;;;5124785;27;40891;-65
2023/08/09 00:44:35;;;;;;;1.85;1.52;;;;;;;;;;5107185;28;42088;-65
2023/08/09 00:47:03;;;;;;;1.77;1.60;;;;;;;;;;5108986;28;41590;-65
2023/08/09 00:49:31;;;;;;;1.40;1.30;;;;;;;;;;5123811;27;40393;-65
2023/08/09 00:51:59;;;;;;;1.63;1.52;;;;;;;;;;5108152;28;40358;-65
2023/08/09 00:54:27;;;;;;;1.65;1.50;;;;;;;;;;5106668;28;40388;-65
2023/08/09 00:56:57;;;;;;;2.28;2.08;;;;;;;;;;5107694;28;43052;-65
2023/08/09 00:59:25;;;;;;;2.10;1.90;;;;;;;;;;5108088;28;40414;-65
2023/08/09 01:01:53;;;;;;;3.20;1.90;;;;;;;;;;5108772;27;42034;-65
2023/08/09 01:04:21;;;;;;;1.77;1.55;;;;;;;;;;5107191;28;42824;-65
2023/08/09 01:06:50;;;;;;;1.70;1.60;;;;;;;;;;5106815;28;38983;-65
2023/08/09 01:09:18;;;;;;;1.83;1.05;;;;;;;;;;5123697;27;41534;-65
2023/08/09 01:11:49;;;;;;;1.90;1.80;;;;;;;;;;5107271;28;41892;-65
2023/08/09 01:14:18;;;;;;;1.40;1.30;;;;;;;;;;5106414;28;42608;-65
2023/08/09 01:16:47;;;;;;;1.77;1.13;;;;;;;;;;5106514;28;40918;-65
2023/08/09 01:19:20;;;;;;;1.00;0.90;;;;;;;;;;5105680;28;40371;-65
2023/08/09 01:21:48;;;;;;;2.08;1.00;;;;;;;;;;5105578;28;41808;-65
2023/08/09 01:24:17;;;;;;;1.30;1.05;;;;;;;;;;5106532;28;40806;-65
2023/08/09 01:26:45;;;;;;;1.17;0.70;;;;;;;;;;5106961;28;40388;-65
2023/08/09 01:29:13;;;;;;;1.15;0.90;;;;;;;;;;5108234;27;41730;-65
2023/08/09 01:31:41;;;;;;;1.35;1.25;;;;;;;;;;5106317;28;39238;-65
2023/08/09 01:34:10;;;;;;;1.00;0.90;;;;;;;;;;5105359;28;40581;-65
2023/08/09 01:36:38;;;;;;;1.00;0.90;;;;;;;;;;5107561;28;43169;-65
2023/08/09 01:39:09;;;;;;;1.38;1.23;;;;;;;;;;5106330;27;39600;-65
2023/08/09 01:41:41;;;;;;;1.25;1.15;;;;;;;;;;5106729;28;42365;-65
2023/08/09 01:44:11;;;;;;;1.10;0.85;;;;;;;;;;5107282;28;42776;-65
2023/08/09 01:46:39;;;;;;;3.80;1.17;;;;;;;;;;5122645;27;38875;-65
2023/08/09 01:49:08;;;;;;;1.13;1.02;;;;;;;;;;5108951;27;42497;-66
2023/08/09 01:51:36;;;;;;;1.20;1.10;;;;;;;;;;5111564;28;43164;-65
2023/08/09 01:54:04;;;;;;;0.70;0.63;;;;;;;;;;5110637;28;42626;-65
2023/08/09 01:56:32;;;;;;;1.67;1.30;;;;;;;;;;5110818;28;42197;-65
2023/08/09 01:59:04;;;;;;;0.93;0.73;;;;;;;;;;5109288;28;38980;-65
2023/08/09 02:01:32;;;;;;;1.35;1.25;;;;;;;;;;5125911;27;40392;-65
2023/08/09 02:04:00;;;;;;;1.52;1.42;;;;;;;;;;5110964;28;41998;-65
2023/08/09 02:06:28;;;;;;;1.77;1.35;;;;;;;;;;5110945;27;41343;-66
2023/08/09 02:08:56;;;;;;;2.78;1.73;;;;;;;;;;5110514;28;42352;-66
2023/08/09 02:11:23;;;;;;;2.40;2.20;;;;;;;;;;5110888;28;42766;-65
2023/08/09 02:13:53;;;;;;;3.30;2.28;;;;;;;;;;5111435;28;40492;-65
2023/08/09 02:16:22;;;;;;;4.95;3.00;;;;;;;;;;5108754;28;40501;-66
2023/08/09 02:18:50;;;;;;;4.07;3.67;;;;;;;;;;5111171;27;42015;-65
2023/08/09 02:21:18;;;;;;;2.00;1.67;;;;;;;;;;5114696;27;41696;-65
2023/08/09 02:23:46;;;;;;;2.08;1.65;;;;;;;;;;5117923;27;43765;-65
2023/08/09 02:26:15;;;;;;;3.20;2.70;;;;;;;;;;5119682;27;41296;-65
2023/08/09 02:28:43;;;;;;;2.47;2.28;;;;;;;;;;5110017;27;42768;-65
2023/08/09 02:31:11;;;;;;;2.13;1.92;;;;;;;;;;5110745;28;42154;-65
2023/08/09 02:33:40;;;;;;;1.95;1.75;;;;;;;;;;5110893;28;41387;-65
2023/08/09 02:36:08;;;;;;;1.55;1.45;;;;;;;;;;5110225;27;42080;-65
2023/08/09 02:38:36;;;;;;;3.88;2.33;;;;;;;;;;5110091;28;40308;-65
2023/08/09 02:41:06;;;;;;;1.88;1.52;;;;;;;;;;5110451;27;41580;-65
2023/08/09 02:43:33;;;;;;;2.53;2.33;;;;;;;;;;5109566;28;42510;-65
2023/08/09 02:46:04;;;;;;;2.38;2.17;;;;;;;;;;5126556;27;40001;-65
2023/08/09 02:48:32;;;;;;;1.55;1.45;;;;;;;;;;5110087;28;40739;-65
2023/08/09 02:51:03;;;;;;;1.45;1.35;;;;;;;;;;5109848;27;42339;-65
2023/08/09 02:53:33;;;;;;;4.65;4.00;;;;;;;;;;5110368;28;41172;-65
2023/08/09 02:56:01;;;;;;;2.05;1.85;;;;;;;;;;5111109;27;41814;-65
2023/08/09 02:58:29;;;;;;;2.50;2.30;;;;;;;;;;5109074;27;41311;-65
2023/08/09 03:00:57;;;;;;;2.53;2.33;;;;;;;;;;5109171;27;40578;-65
2023/08/09 03:03:25;;;;;;;2.03;1.67;;;;;;;;;;5108118;28;40697;-64
2023/08/09 03:05:54;;;;;;;3.65;3.13;;;;;;;;;;5109021;27;40278;-65
2023/08/09 03:08:23;;;;;;;4.47;3.03;;;;;;;;;;5109812;28;41389;-65
2023/08/09 03:10:51;;;;;;;1.92;1.75;;;;;;;;;;5108973;28;43110;-65
2023/08/09 03:13:19;;;;;;;5.20;4.70;;;;;;;;;;5125779;27;39833;-65
2023/08/09 03:15:47;;;;;;;4.65;4.07;;;;;;;;;;5110026;28;42607;-65
2023/08/09 03:18:15;;;;;;;4.22;3.50;;;;;;;;;;5125667;27;42021;-65
2023/08/09 03:20:43;;;;;;;3.38;3.08;;;;;;;;;;5107868;27;42541;-65
2023/08/09 03:23:12;;;;;;;5.50;4.93;;;;;;;;;;5125382;27;41753;-64
2023/08/09 03:25:42;;;;;;;6.78;5.88;;;;;;;;;;5107199;28;39198;-65
2023/08/09 03:28:12;;;;;;;6.38;5.78;;;;;;;;;;5109298;27;40231;-65
2023/08/09 03:30:40;;;;;;;5.35;4.85;;;;;;;;;;5108868;28;41887;-65
2023/08/09 03:33:09;;;;;;;5.82;5.22;;;;;;;;;;5108141;27;38766;-65
2023/08/09 03:35:38;;;;;;;3.17;2.88;;;;;;;;;;5124969;27;40611;-65
2023/08/09 03:38:06;;;;;;;5.55;4.78;;;;;;;;;;5107889;27;41554;-65
2023/08/09 03:40:34;;;;;;;5.82;4.43;;;;;;;;;;5131995;27;40048;-65
2023/08/09 03:43:05;;;;;;;5.32;3.85;;;;;;;;;;5128304;27;40687;-65
2023/08/09 03:45:34;;;;;;;7.40;5.22;;;;;;;;;;5108028;27;38830;-66
2023/08/09 03:48:03;;;;;;;6.13;4.93;;;;;;;;;;5107910;28;41992;-65
2023/08/09 03:50:31;;;;;;;5.53;3.78;;;;;;;;;;5118740;27;42262;-65
2023/08/09 03:52:59;;;;;;;4.30;3.90;;;;;;;;;;5107851;27;39255;-66
2023/08/09 03:55:27;;;;;;;2.67;2.47;;;;;;;;;;5107174;28;40878;-66
2023/08/09 03:57:56;;;;;;;4.47;2.58;;;;;;;;;;5125437;27;40595;-65
2023/08/09 04:00:26;;;;;;;2.75;2.50;;;;;;;;;;5108580;27;41245;-66
2023/08/09 04:02:54;;;;;;;1.85;1.65;;;;;;;;;;5109840;27;41117;-66
2023/08/09 04:05:23;;;;;;;2.50;1.98;;;;;;;;;;5124863;27;39665;-66
2023/08/09 04:07:51;;;;;;;4.25;3.35;;;;;;;;;;5108098;28;42637;-66
2023/08/09 04:10:19;;;;;;;3.33;2.90;;;;;;;;;;5107080;28;42441;-65
2023/08/09 04:12:47;;;;;;;3.22;2.67;;;;;;;;;;5107128;27;38860;-66
2023/08/09 04:15:15;;;;;;;5.40;4.13;;;;;;;;;;5117619;27;42780;-66
2023/08/09 04:17:48;;;;;;;4.85;3.42;;;;;;;;;;5107588;28;40956;-66
2023/08/09 04:20:17;;;;;;;5.60;4.28;;;;;;;;;;5108240;28;41340;-66
2023/08/09 04:22:44;;;;;;;2.95;2.65;;;;;;;;;;5099418;28;41880;-66
2023/08/09 04:25:12;;;;;;;2.60;2.33;;;;;;;;;;5109374;27;32727;-66
2023/08/09 04:27:40;;;;;;;4.03;3.35;;;;;;;;;;5108003;27;41236;-66
2023/08/09 04:30:10;;;;;;;3.38;1.70;;;;;;;;;;5107954;27;42308;-66
2023/08/09 04:32:38;;;;;;;5.07;4.57;;;;;;;;;;5108158;27;40424;-66
2023/08/09 04:35:09;;;;;;;4.78;3.97;;;;;;;;;;5108348;27;41919;-66
2023/08/09 04:37:37;;;;;;;4.78;4.05;;;;;;;;;;5108153;27;41860;-66
2023/08/09 04:40:10;;;;;;;3.28;2.35;;;;;;;;;;5108582;27;41427;-66
2023/08/09 04:42:39;;;;;;;3.70;3.03;;;;;;;;;;5108370;27;41382;-66
2023/08/09 04:45:08;;;;;;;2.60;2.28;;;;;;;;;;5109546;27;42197;-66
2023/08/09 04:47:36;;;;;;;4.80;3.85;;;;;;;;;;5107743;27;41594;-66
2023/08/09 04:50:05;;;;;;;4.30;3.40;;;;;;;;;;5108152;27;42471;-66
2023/08/09 04:52:35;;;;;;;4.03;3.22;;;;;;;;;;5107752;27;40522;-66
2023/08/09 04:55:03;;;;;;;4.13;3.10;;;;;;;;;;5108529;27;41567;-66
2023/08/09 04:57:31;;;;;;;6.40;5.05;;;;;;;;;;5107181;27;41557;-66
2023/08/09 05:00:08;;;;;;;4.32;3.88;;;;;;;;;;5108677;27;40933;-66
2023/08/09 05:02:38;;;;;;;4.70;3.33;;;;;;;;;;5107944;27;41437;-66
2023/08/09 05:05:07;;;;;;;5.03;4.10;;;;;;;;;;5108023;27;42705;-66
2023/08/09 05:07:36;;;;;;;7.28;4.80;;;;;;;;;;5107993;27;40340;-65
2023/08/09 05:10:06;;;;;;;2.63;2.13;;;;;;;;;;5107333;27;41634;-65
2023/08/09 05:12:34;;;;;;;3.35;3.00;;;;;;;;;;5106987;27;40669;-65
2023/08/09 05:15:04;;;;;;;4.85;2.92;;;;;;;;;;5108657;27;42644;-65
2023/08/09 05:17:32;;;;;;;3.65;3.15;;;;;;;;;;5106904;27;42056;-65
2023/08/09 05:20:00;;;;;;;2.47;1.83;;;;;;;;;;5108138;27;41897;-64
2023/08/09 05:22:28;;;;;;;7.22;5.07;;;;;;;;;;5107923;27;41869;-65
2023/08/09 05:24:58;;;;;;;3.65;3.00;;;;;;;;;;5106433;27;41755;-65
2023/08/09 05:27:27;;;;;;;6.85;5.72;;;;;;;;;;5107866;27;41105;-65
2023/08/09 05:29:55;;;;;;;3.70;2.65;;;;;;;;;;5108514;27;42539;-65
2023/08/09 05:32:26;;;;;;;4.97;4.47;;;;;;;;;;5105575;27;41468;-65
2023/08/09 05:34:54;;;;;;;1.80;1.58;;;;;;;;;;5107596;27;41607;-65
2023/08/09 05:37:22;;;;;;;5.45;3.83;;;;;;;;;;5107692;27;41668;-65
2023/08/09 05:39:50;;;;;;;4.15;3.42;;;;;;;;;;5106913;27;40324;-65
2023/08/09 05:42:19;;;;;;;3.58;2.67;;;;;;;;;;5106710;27;41753;-65
2023/08/09 05:44:47;;;;;;;4.95;3.70;;;;;;;;;;5107078;27;43004;-65
2023/08/09 05:47:15;;;;;;;3.78;2.95;;;;;;;;;;5107170;27;40288;-65
2023/08/09 05:49:43;;;;;;;3.10;2.42;;;;;;;;;;5107575;27;42739;-65
2023/08/09 05:52:11;;;;;;;2.05;1.85;;;;;;;;;;5108410;27;41810;-65
2023/08/09 05:54:39;;;;;;;1.67;1.33;;;;;;;;;;5123630;27;41301;-65
2023/08/09 05:57:07;;;;;;;3.08;1.95;;;;;;;;;;5125153;27;42082;-65
2023/08/09 05:59:37;;;;;;;2.63;1.83;;;;;;;;;;5106851;27;41653;-65
2023/08/09 06:02:06;;;;;;;4.18;1.95;;;;;;;;;;5107930;27;42541;-64
2023/08/09 06:04:34;;;;;;;2.08;1.17;;;;;;;;;;5106519;27;42059;-65
2023/08/09 06:07:03;;;;;;;1.63;1.38;;;;;;;;;;5123627;27;41281;-65
2023/08/09 06:09:32;;;;;;;5.55;3.78;;;;;;;;;;5127744;27;41809;-65
2023/08/09 06:12:18;;;;;;;1.33;1.23;;;;;;;;;;5121080;27;42846;-65
2023/08/09 06:14:48;;;;;;;1.45;1.10;;;;;;;;;;5116294;27;40398;-65
2023/08/09 06:17:15;;;;;;;0.77;0.57;;;;;;;;;;5117798;27;42655;-65
2023/08/09 06:19:44;;;;;;;1.95;1.75;;;;;;;;;;5106694;27;41354;-64
2023/08/09 06:22:12;;;;;;;1.77;1.27;;;;;;;;;;5111625;27;41752;-66
2023/08/09 06:24:40;;;;;;;3.45;3.03;;;;;;;;;;5122059;27;42304;-64
2023/08/09 06:27:08;;;;;;;1.42;1.27;;;;;;;;;;5128215;27;40537;-65
2023/08/09 06:29:36;;;;;;;2.15;1.55;;;;;;;;;;5124944;27;41084;-65
2023/08/09 06:32:06;;;;;;;4.50;3.30;;;;;;;;;;5106575;27;42261;-65
2023/08/09 06:34:33;;;;;;;3.40;1.95;;;;;;;;;;5106454;27;42372;-65
2023/08/09 06:37:01;;;;;;;0.57;0.55;;;;;;;;;;5112167;27;42715;-64
2023/08/09 06:39:30;;;;;;;1.63;1.08;;;;;;;;;;5131071;27;39889;-66
2023/08/09 06:41:58;;;;;;;0.40;0.40;;;;;;;;;;5131280;27;41185;-65
2023/08/09 06:44:29;;;;;;;1.23;0.60;;;;;;;;;;5127323;27;40728;-66
2023/08/09 06:46:57;;;;;;;1.65;1.50;;;;;;;;;;5111234;27;41441;-66
2023/08/09 06:49:26;;;;;;;2.35;1.98;;;;;;;;;;5109206;27;41747;-65
2023/08/09 06:51:55;;;;;;;0.75;0.50;;;;;;;;;;5113912;27;42931;-65
2023/08/09 06:54:23;;;;;;;0.60;0.57;;;;;;;;;;5131173;27;41420;-65
2023/08/09 06:56:51;;;;;;;0.85;0.45;;;;;;;;;;5116217;27;42682;-68
2023/08/09 06:59:19;;;;;;;4.53;1.88;;;;;;;;;;5109615;27;41295;-67
2023/08/09 07:01:48;;;;;;;3.00;1.02;;;;;;;;;;5110119;27;42528;-67
2023/08/09 07:04:18;;;;;;;2.92;1.42;;;;;;;;;;5109181;27;41728;-66
2023/08/09 07:06:48;;;;;;;6.15;1.20;;;;;;;;;;5110307;27;40957;-68
2023/08/09 07:09:18;;;;;;;3.90;1.92;;;;;;;;;;5110167;27;41625;-67
2023/08/09 07:11:46;;;;;;;3.47;1.60;;;;;;;;;;5115209;27;43547;-65
2023/08/09 07:14:14;;;;;;;3.72;1.55;;;;;;;;;;5131153;27;40211;-66
2023/08/09 07:16:42;;;;;;;4.82;1.70;;;;;;;;;;5120442;27;41068;-65
2023/08/09 07:19:11;;;;;;;6.65;1.70;;;;;;;;;;5118072;27;42067;-65
2023/08/09 07:21:39;;;;;;;4.53;1.77;;;;;;;;;;5118149;27;42790;-66
2023/08/09 07:24:08;;;;;;;6.10;2.22;;;;;;;;;;5108650;27;42180;-68
2023/08/09 07:26:36;;;;;;;4.93;2.40;;;;;;;;;;5108996;27;40258;-65
2023/08/09 07:29:04;;;;;;;7.80;2.55;;;;;;;;;;5109681;27;41529;-65
2023/08/09 07:31:32;;;;;;;5.82;2.88;;;;;;;;;;5108566;27;41966;-67
2023/08/09 07:34:01;;;;;;;15.32;2.28;;;;;;;;;;5109761;27;40333;-74
2023/08/09 07:36:29;;;;;;;9.65;3.20;;;;;;;;;;5096248;27;42693;-66
2023/08/09 07:38:58;;;;;;;16.98;3.63;;;;;;;;;;5106757;28;43238;-73
2023/08/09 07:41:28;;;;;;;5.18;2.83;;;;;;;;;;5110146;27;40452;-68
2023/08/09 07:43:56;;;;;;;6.43;3.50;;;;;;;;;;5110196;27;41838;-69
2023/08/09 07:46:24;;;;;;;8.60;3.08;;;;;;;;;;5108577;27;39640;-69
2023/08/09 07:48:53;;;;;;;8.40;2.85;;;;;;;;;;5108241;27;42310;-66
2023/08/09 07:51:21;;;;;;;9.75;3.75;;;;;;;;;;5108559;27;42399;-67
2023/08/09 07:53:49;;;;;;;6.53;3.22;;;;;;;;;;5108411;27;40286;-66
2023/08/09 07:56:17;;;;;;;7.00;3.10;;;;;;;;;;5108622;27;42157;-68
2023/08/09 07:58:46;;;;;;;18.17;3.50;;;;;;;;;;5115667;27;42092;-69
2023/08/09 08:01:15;;;;;;;6.72;2.58;;;;;;;;;;5108259;27;40989;-66
2023/08/09 08:03:46;;;;;;;7.38;2.70;;;;;;;;;;5108531;27;42589;-67
2023/08/09 08:06:15;;;;;;;5.10;2.50;;;;;;;;;;5109014;27;41217;-66
2023/08/09 08:08:45;;;;;;;8.85;2.90;;;;;;;;;;5108283;27;42145;-67
2023/08/09 08:11:13;;;;;;;6.88;2.70;;;;;;;;;;5107952;27;41773;-66
2023/08/09 08:13:41;;;;;;;3.95;2.40;;;;;;;;;;5118050;27;41917;-66
2023/08/09 08:16:10;;;;;;;4.47;2.50;;;;;;;;;;5128921;27;41818;-67
2023/08/09 08:18:38;;;;;;;6.20;2.58;;;;;;;;;;5128734;27;43040;-66
2023/08/09 08:21:06;;;;;;;3.72;3.05;;;;;;;;;;5128295;27;40417;-66
2023/08/09 08:23:34;;;;;;;7.15;4.50;;;;;;;;;;5112112;27;42567;-65
2023/08/09 08:26:02;;;;;;;4.45;3.80;;;;;;;;;;5108697;27;42576;-67
2023/08/09 08:28:30;;;;;;;5.30;3.85;;;;;;;;;;5106961;27;42232;-67
2023/08/09 08:30:59;;;;;;;5.15;3.65;;;;;;;;;;5108193;27;42019;-66
2023/08/09 08:33:28;;;;;;;21.17;3.97;;;;;;;;;;5108122;27;41543;-66
2023/08/09 08:35:56;;;;;;;8.50;4.10;;;;;;;;;;5106808;27;41897;-65
2023/08/09 08:38:44;;;;;;;6.43;4.45;;;;;;;;;;5107965;27;43340;-65
2023/08/09 08:41:12;;;;;;;4.22;3.80;;;;;;;;;;5107270;27;40441;-66
2023/08/09 08:43:40;;;;;;;4.53;3.63;;;;;;;;;;5107391;27;41649;-66
2023/08/09 08:46:08;;;;;;;21.52;6.38;;;;;;;;;;5108088;27;41859;-65
2023/08/09 08:48:39;;;;;;;11.45;5.70;;;;;;;;;;5106748;27;42324;-66
2023/08/09 08:51:07;;;;;;;9.50;4.15;;;;;;;;;;5107490;27;41704;-66
2023/08/09 08:53:35;;;;;;;7.50;5.15;;;;;;;;;;5112991;27;40464;-66
2023/08/09 08:56:03;;;;;;;8.13;5.05;;;;;;;;;;5090578;28;42144;-65
2023/08/09 08:58:31;;;;;;;5.70;4.32;;;;;;;;;;5105733;27;43125;-66
2023/08/09 09:00:59;;;;;;;6.65;3.40;;;;;;;;;;5107311;27;40274;-65
2023/08/09 09:03:27;;;;;;;4.32;3.30;;;;;;;;;;5108209;27;42513;-65
2023/08/09 09:05:57;;;;;;;7.97;3.50;;;;;;;;;;5116570;27;42107;-66
2023/08/09 09:08:25;;;;;;;4.88;3.75;;;;;;;;;;5108075;27;40355;-65
2023/08/09 09:10:54;;;;;;;5.35;3.95;;;;;;;;;;5106712;27;43163;-65
2023/08/09 09:13:26;;;;;;;5.68;4.15;;;;;;;;;;5107530;27;41187;-65
2023/08/09 09:15:55;;;;;;;5.40;3.67;;;;;;;;;;5107839;27;41313;-65
2023/08/09 09:18:23;;;;;;;9.43;4.18;;;;;;;;;;5113997;27;42870;-65
2023/08/09 09:20:51;;;;;;;5.95;4.35;;;;;;;;;;5115524;27;41314;-73
2023/08/09 09:23:27;;;;;;;7.80;4.57;;;;;;;;;;5106953;27;41546;-68
2023/08/09 09:26:02;;;;;;;6.47;4.03;;;;;;;;;;5106702;27;43011;-67
2023/08/09 09:28:30;;;;;;;8.00;3.97;;;;;;;;;;5101209;27;40977;-67
2023/08/09 09:30:58;;;;;;;5.72;4.15;;;;;;;;;;5104687;28;41188;-67
2023/08/09 09:33:32;;;;;;;4.78;3.45;;;;;;;;;;5106423;27;40170;-67
2023/08/09 09:36:00;;;;;;;5.07;3.55;;;;;;;;;;5108067;27;41693;-76
2023/08/09 09:38:30;;;;;;;4.93;3.17;;;;;;;;;;5106058;27;42136;-75
2023/08/09 09:40:58;;;;;;;6.20;2.97;;;;;;;;;;5107457;27;40319;-74
2023/08/09 09:43:25;;;;;;;4.28;3.50;;;;;;;;;;5107212;27;41525;-72
2023/08/09 09:45:54;;;;;;;6.18;3.30;;;;;;;;;;5106397;27;42142;-74
2023/08/09 09:48:22;;;;;;;5.95;4.50;;;;;;;;;;5106739;27;40524;-82
2023/08/09 09:50:50;;;;;;;7.03;3.47;;;;;;;;;;5106619;27;42261;-78
2023/08/09 09:53:18;;;;;;;7.45;4.28;;;;;;;;;;5106608;27;43161;-77
2023/08/09 09:55:48;;;;;;;6.45;3.45;;;;;;;;;;5106196;27;40551;-75
2023/08/09 09:58:16;;;;;;;5.20;4.07;;;;;;;;;;5106841;27;42868;-73
2023/08/09 10:00:46;;;;;;;11.00;4.70;;;;;;;;;;5105544;27;40436;-74
2023/08/09 10:03:15;;;;;;;7.40;4.35;;;;;;;;;;5106890;27;42218;-71
2023/08/09 10:05:44;;;;;;;4.25;3.30;;;;;;;;;;5105533;27;43778;-70
2023/08/09 10:08:12;;;;;;;5.13;3.80;;;;;;;;;;5107330;27;40449;-74
2023/08/09 10:10:42;;;;;;;6.10;3.38;;;;;;;;;;5108162;27;42282;-79
2023/08/09 10:13:12;;;;;;;9.25;3.63;;;;;;;;;;5110352;27;42978;-70
2023/08/09 10:15:41;;;;;;;5.97;3.20;;;;;;;;;;5110738;27;41465;-71
2023/08/09 10:18:10;;;;;;;4.90;3.45;;;;;;;;;;5110586;27;43474;-68
2023/08/09 10:20:44;;;;;;;8.73;3.50;;;;;;;;;;5109782;27;40684;-74
2023/08/09 10:23:19;;;;;;;4.50;2.80;;;;;;;;;;5110548;27;41365;-72
2023/08/09 10:25:47;;;;;;;4.13;2.88;;;;;;;;;;5110009;27;41893;-74
2023/08/09 10:28:17;;;;;;;7.05;3.00;;;;;;;;;;5114810;27;41453;-74
2023/08/09 10:30:46;;;;;;;5.07;2.95;;;;;;;;;;5131165;27;41017;-67
2023/08/09 10:33:18;;;;;;;6.60;3.72;;;;;;;;;;5090828;27;42343;-69
2023/08/09 10:35:48;;;;;;;9.23;3.42;;;;;;;;;;5101907;27;40087;-76
2023/08/09 10:38:16;;;;;;;4.85;3.15;;;;;;;;;;5113680;27;41449;-80
2023/08/09 10:40:45;;;;;;;4.30;3.25;;;;;;;;;;5096485;27;41388;-75
2023/08/09 10:43:19;;;;;;;6.28;3.45;;;;;;;;;;5104436;27;40972;-75
2023/08/09 10:45:47;;;;;;;5.93;3.40;;;;;;;;;;5098536;27;41665;-76
2023/08/09 10:48:20;;;;;;;4.05;2.80;;;;;;;;;;5099876;28;39745;-73
2023/08/09 10:51:00;;;;;;;5.30;2.75;;;;;;;;;;5097908;27;41616;-74
2023/08/09 10:53:28;;;;;;;2.88;2.42;;;;;;;;;;5092956;28;42101;-71
2023/08/09 10:55:56;;;;;;;4.18;3.08;;;;;;;;;;5098788;27;40833;-71
2023/08/09 10:58:28;;;;;;;4.30;2.88;;;;;;;;;;5095643;27;42282;-71
2023/08/09 11:00:59;;;;;;;5.13;2.85;;;;;;;;;;5094606;27;41307;-70
2023/08/09 11:03:27;;;;;;;3.80;2.67;;;;;;;;;;5093709;28;41410;-67
2023/08/09 11:05:56;;;;;;;4.80;2.70;;;;;;;;;;5098533;27;43105;-66
2023/08/09 11:08:24;;;;;;;6.32;2.60;;;;;;;;;;5105634;27;41155;-66
2023/08/09 11:10:52;;;;;;;3.95;2.22;;;;;;;;;;5108108;27;42037;-66
2023/08/09 11:13:20;;;;;;;8.02;2.72;;;;;;;;;;5116556;27;43050;-67
2023/08/09 11:15:50;;;;;;;7.13;2.28;;;;;;;;;;5118310;27;41215;-66
2023/08/09 11:18:18;;;;;;;5.05;2.83;;;;;;;;;;5113157;27;42277;-66
2023/08/09 11:20:46;;;;;;;9.32;2.67;;;;;;;;;;5113533;27;42223;-65
2023/08/09 11:23:14;;;;;;;3.38;2.58;;;;;;;;;;5107328;27;41407;-64
2023/08/09 11:25:42;;;;;;;3.30;2.83;;;;;;;;;;5100226;28;41665;-65
2023/08/09 11:28:12;;;;;;;3.35;2.67;;;;;;;;;;5106470;27;41343;-64
2023/08/09 11:30:40;;;;;;;3.58;2.10;;;;;;;;;;5092224;27;41029;-66
2023/08/09 11:33:10;;;;;;;5.28;2.00;;;;;;;;;;5089386;28;43116;-66
2023/08/09 11:35:43;;;;;;;9.85;3.17;;;;;;;;;;5086654;28;40496;-66
2023/08/09 11:38:11;;;;;;;6.60;2.10;;;;;;;;;;5085663;28;42578;-66
2023/08/09 11:40:40;;;;;;;3.17;2.50;;;;;;;;;;5087116;28;41822;-65
2023/08/09 11:43:12;;;;;;;4.93;2.28;;;;;;;;;;5108181;27;41248;-68
2023/08/09 11:45:48;;;;;;;6.80;2.60;;;;;;;;;;5106671;27;41643;-71
2023/08/09 11:48:24;;;;;;;4.82;2.38;;;;;;;;;;5115983;27;41373;-74
2023/08/09 11:51:00;;;;;;;5.45;2.80;;;;;;;;;;5116628;27;41884;-70
2023/08/09 11:53:28;;;;;;;4.20;2.40;;;;;;;;;;5124102;27;42678;-69
2023/08/09 11:56:00;;;;;;;8.45;3.08;;;;;;;;;;5113714;27;39753;-69
2023/08/09 11:58:28;;;;;;;7.20;2.95;;;;;;;;;;5112895;27;42594;-69
2023/08/09 12:00:58;;;;;;;4.25;2.20;;;;;;;;;;5109867;27;41736;-69
2023/08/09 12:03:27;;;;;;;3.95;2.78;;;;;;;;;;5109367;27;41083;-69
2023/08/09 12:05:56;;;;;;;3.45;2.47;;;;;;;;;;5108915;27;41545;-69
2023/08/09 12:08:34;;;;;;;3.90;2.15;;;;;;;;;;5109120;27;40702;-69
2023/08/09 12:11:02;;;;;;;2.55;1.98;;;;;;;;;;5109874;27;42060;-69
2023/08/09 12:13:30;;;;;;;6.43;2.83;;;;;;;;;;5107721;27;43008;-69
2023/08/09 12:15:58;;;;;;;3.90;2.67;;;;;;;;;;5108683;27;40265;-69
2023/08/09 12:18:27;;;;;;;3.47;2.58;;;;;;;;;;5108671;27;40921;-69
2023/08/09 12:20:56;;;;;;;4.88;2.08;;;;;;;;;;5107489;27;42735;-69
2023/08/09 12:23:23;;;;;;;3.35;2.22;;;;;;;;;;5108797;27;42512;-69
2023/08/09 12:25:52;;;;;;;2.53;1.83;;;;;;;;;;5109050;27;41735;-69
2023/08/09 12:28:20;;;;;;;5.53;2.25;;;;;;;;;;5107832;27;42739;-69
2023/08/09 12:30:48;;;;;;;3.70;2.33;;;;;;;;;;5108603;27;41219;-69
2023/08/09 12:33:16;;;;;;;3.08;1.80;;;;;;;;;;5107672;27;42952;-69
2023/08/09 12:35:45;;;;;;;3.08;1.80;;;;;;;;;;5108410;27;40048;-69
2023/08/09 12:38:14;;;;;;;2.92;2.70;;;;;;;;;;5108653;27;41620;-69
2023/08/09 12:40:42;;;;;;;3.47;2.45;;;;;;;;;;5107672;27;42006;-69
2023/08/09 12:43:10;;;;;;;2.05;1.70;;;;;;;;;;5108302;27;40463;-69
2023/08/09 12:45:38;;;;;;;3.90;2.08;;;;;;;;;;5108025;27;42619;-69
2023/08/09 12:48:07;;;;;;;2.30;1.60;;;;;;;;;;5107571;27;41551;-69
2023/08/09 12:50:35;;;;;;;5.93;2.20;;;;;;;;;;5108357;27;40719;-69
2023/08/09 12:53:04;;;;;;;3.60;2.10;;;;;;;;;;5108233;27;42181;-69
2023/08/09 12:55:36;;;;;;;2.90;2.50;;;;;;;;;;5107437;27;41465;-69
2023/08/09 12:58:04;;;;;;;2.85;1.67;;;;;;;;;;5108251;27;42390;-69
2023/08/09 13:00:32;;;;;;;3.83;2.10;;;;;;;;;;5107965;27;42045;-69
2023/08/09 13:03:01;;;;;;;3.63;2.90;;;;;;;;;;5107969;27;39468;-69
2023/08/09 13:05:31;;;;;;;2.35;2.15;;;;;;;;;;5107955;27;40929;-69
2023/08/09 13:07:59;;;;;;;2.78;2.00;;;;;;;;;;5108699;27;42656;-69
2023/08/09 13:10:28;;;;;;;5.40;2.17;;;;;;;;;;5107289;27;40345;-69
2023/08/09 13:12:56;;;;;;;2.75;2.00;;;;;;;;;;5108640;27;42884;-69
2023/08/09 13:15:24;;;;;;;2.30;1.90;;;;;;;;;;5107894;27;40239;-69
2023/08/09 13:17:52;;;;;;;4.38;2.13;;;;;;;;;;5108697;27;41392;-69
2023/08/09 13:20:20;;;;;;;3.75;1.85;;;;;;;;;;5107361;27;43065;-69
2023/08/09 13:22:48;;;;;;;2.78;2.47;;;;;;;;;;5107293;27;40111;-69
2023/08/09 13:25:16;;;;;;;3.15;2.60;;;;;;;;;;5108226;27;41533;-69
2023/08/09 13:27:46;;;;;;;2.85;2.00;;;;;;;;;;5107830;27;42026;-70
2023/08/09 13:30:14;;;;;;;2.28;2.08;;;;;;;;;;5107278;27;41375;-69
2023/08/09 13:32:42;;;;;;;2.83;1.85;;;;;;;;;;5108168;27;41677;-69
2023/08/09 13:35:10;;;;;;;2.97;1.55;;;;;;;;;;5107708;27;41310;-69
2023/08/09 13:37:38;;;;;;;3.80;1.67;;;;;;;;;;5106982;27;42182;-69
2023/08/09 13:40:09;;;;;;;2.75;1.83;;;;;;;;;;5108178;27;42768;-70
2023/08/09 13:42:37;;;;;;;2.65;1.75;;;;;;;;;;5107345;27;40936;-70
2023/08/09 13:45:07;;;;;;;2.28;1.90;;;;;;;;;;5106799;27;41619;-70
2023/08/09 13:47:35;;;;;;;1.63;1.50;;;;;;;;;;5107333;27;43832;-70
2023/08/09 13:50:04;;;;;;;3.33;1.60;;;;;;;;;;5107966;27;40544;-69
2023/08/09 13:52:32;;;;;;;3.08;1.80;;;;;;;;;;5107152;27;42702;-70
2023/08/09 13:55:00;;;;;;;1.98;1.52;;;;;;;;;;5108300;27;42685;-69
2023/08/09 13:57:28;;;;;;;4.85;1.70;;;;;;;;;;5107013;27;41469;-69
2023/08/09 13:59:56;;;;;;;3.28;1.90;;;;;;;;;;5106635;27;42489;-69
2023/08/09 14:02:26;;;;;;;2.45;1.65;;;;;;;;;;5107395;27;40540;-69
2023/08/09 14:04:54;;;;;;;2.42;1.45;;;;;;;;;;5106851;27;41185;-69
2023/08/09 14:07:22;;;;;;;4.43;1.95;;;;;;;;;;5107457;27;43293;-69
2023/08/09 14:09:50;;;;;;;3.30;1.80;;;;;;;;;;5106774;27;40323;-70
2023/08/09 14:12:18;;;;;;;2.88;1.65;;;;;;;;;;5106262;27;41437;-69
2023/08/09 14:14:46;;;;;;;3.35;1.65;;;;;;;;;;5106496;27;43335;-69
2023/08/09 14:17:14;;;;;;;1.60;1.50;;;;;;;;;;5107517;27;40342;-69
2023/08/09 14:19:44;;;;;;;2.47;1.33;;;;;;;;;;5106317;27;42487;-69
2023/08/09 14:22:13;;;;;;;3.35;1.65;;;;;;;;;;5107602;27;40007;-69
2023/08/09 14:24:41;;;;;;;3.08;1.23;;;;;;;;;;5106620;27;41492;-69
2023/08/09 14:27:09;;;;;;;1.80;1.20;;;;;;;;;;5106524;27;41830;-69
2023/08/09 14:29:42;;;;;;;2.90;1.40;;;;;;;;;;5106747;27;39998;-69
2023/08/09 14:32:10;;;;;;;4.95;1.52;;;;;;;;;;5109470;27;41560;-69
2023/08/09 14:34:38;;;;;;;2.50;1.30;;;;;;;;;;5105956;27;42649;-68
2023/08/09 14:37:07;;;;;;;4.55;1.73;;;;;;;;;;5120405;27;39812;-69
2023/08/09 14:39:36;;;;;;;5.72;1.52;;;;;;;;;;5110727;27;41449;-70
2023/08/09 14:42:04;;;;;;;3.88;1.50;;;;;;;;;;5111429;27;40226;-69
2023/08/09 14:44:32;;;;;;;4.50;1.50;;;;;;;;;;5114119;27;41777;-70
2023/08/09 14:47:00;;;;;;;3.92;1.67;;;;;;;;;;5114297;27;41786;-70
2023/08/09 14:49:29;;;;;;;3.38;1.20;;;;;;;;;;5114436;27;40034;-70
2023/08/09 14:51:57;;;;;;;2.70;1.20;;;;;;;;;;5108657;27;41625;-71